Watson Lake Airport

CYQH | YQH

Watson Lake , Yukon , Canada

Thursday, September 19th, 2019 | 12:20

Weather

CYQH 191900Z 27007KT 30SM BKN057 OVC085 14/04 A2963 RMK SC6AC2 SLP045 DENSITY ALT 3000FT

Charts

No Charts Available

Gates

No Gates Available

Runways

1 Available

Events

No events for this airport


New event